sensor_id;sensor_type;location;lat;lon;timestamp;P1;durP1;ratioP1;P2;durP2;ratioP2
15114;SDS011;7658;51.456;7.622;2022-07-29T00:00:03;4.43;;;2.08;;
15114;SDS011;7658;51.456;7.622;2022-07-29T00:02:30;4.55;;;2.00;;
15114;SDS011;7658;51.456;7.622;2022-07-29T00:04:57;6.72;;;2.08;;
15114;SDS011;7658;51.456;7.622;2022-07-29T00:07:23;4.22;;;2.47;;
15114;SDS011;7658;51.456;7.622;2022-07-29T00:09:49;7.28;;;2.40;;
15114;SDS011;7658;51.456;7.622;2022-07-29T00:12:15;3.67;;;1.92;;
15114;SDS011;7658;51.456;7.622;2022-07-29T00:14:40;5.40;;;2.15;;
15114;SDS011;7658;51.456;7.622;2022-07-29T00:17:06;4.53;;;2.17;;
15114;SDS011;7658;51.456;7.622;2022-07-29T00:19:32;4.18;;;2.20;;
15114;SDS011;7658;51.456;7.622;2022-07-29T00:21:59;4.60;;;2.10;;
15114;SDS011;7658;51.456;7.622;2022-07-29T00:24:25;6.28;;;1.92;;
15114;SDS011;7658;51.456;7.622;2022-07-29T00:26:51;5.88;;;2.22;;
15114;SDS011;7658;51.456;7.622;2022-07-29T00:29:17;4.95;;;2.15;;
15114;SDS011;7658;51.456;7.622;2022-07-29T00:31:43;4.88;;;2.15;;
15114;SDS011;7658;51.456;7.622;2022-07-29T00:34:09;5.30;;;2.05;;
15114;SDS011;7658;51.456;7.622;2022-07-29T00:36:54;3.88;;;2.33;;
15114;SDS011;7658;51.456;7.622;2022-07-29T00:39:20;5.60;;;2.33;;
15114;SDS011;7658;51.456;7.622;2022-07-29T00:41:46;6.07;;;2.25;;
15114;SDS011;7658;51.456;7.622;2022-07-29T00:44:12;5.45;;;2.42;;
15114;SDS011;7658;51.456;7.622;2022-07-29T00:46:38;4.35;;;2.30;;
15114;SDS011;7658;51.456;7.622;2022-07-29T00:49:03;4.30;;;1.77;;
15114;SDS011;7658;51.456;7.622;2022-07-29T00:51:29;9.02;;;2.70;;
15114;SDS011;7658;51.456;7.622;2022-07-29T00:53:56;3.03;;;2.05;;
15114;SDS011;7658;51.456;7.622;2022-07-29T00:56:22;4.88;;;2.25;;
15114;SDS011;7658;51.456;7.622;2022-07-29T00:58:48;5.10;;;2.58;;
15114;SDS011;7658;51.456;7.622;2022-07-29T01:01:16;7.95;;;2.30;;
15114;SDS011;7658;51.456;7.622;2022-07-29T01:03:42;3.95;;;1.92;;
15114;SDS011;7658;51.456;7.622;2022-07-29T01:06:07;8.07;;;2.45;;
15114;SDS011;7658;51.456;7.622;2022-07-29T01:08:34;4.47;;;2.30;;
15114;SDS011;7658;51.456;7.622;2022-07-29T01:11:00;8.43;;;2.50;;
15114;SDS011;7658;51.456;7.622;2022-07-29T01:13:27;6.07;;;2.15;;
15114;SDS011;7658;51.456;7.622;2022-07-29T01:15:56;2.10;;;1.90;;
15114;SDS011;7658;51.456;7.622;2022-07-29T01:18:30;6.22;;;2.40;;
15114;SDS011;7658;51.456;7.622;2022-07-29T01:26:56;4.72;;;2.30;;
15114;SDS011;7658;51.456;7.622;2022-07-29T01:29:48;6.15;;;2.25;;
15114;SDS011;7658;51.456;7.622;2022-07-29T01:32:20;4.43;;;2.45;;
15114;SDS011;7658;51.456;7.622;2022-07-29T01:40:28;6.93;;;2.53;;
15114;SDS011;7658;51.456;7.622;2022-07-29T01:42:59;7.70;;;2.67;;
15114;SDS011;7658;51.456;7.622;2022-07-29T01:45:37;5.30;;;2.47;;
15114;SDS011;7658;51.456;7.622;2022-07-29T01:48:10;3.35;;;2.13;;
15114;SDS011;7658;51.456;7.622;2022-07-29T01:50:53;2.40;;;2.20;;
15114;SDS011;7658;51.456;7.622;2022-07-29T01:53:25;6.88;;;2.40;;
15114;SDS011;7658;51.456;7.622;2022-07-29T01:55:56;6.88;;;2.45;;
15114;SDS011;7658;51.456;7.622;2022-07-29T01:58:25;3.45;;;2.60;;
15114;SDS011;7658;51.456;7.622;2022-07-29T02:00:53;4.15;;;2.25;;
15114;SDS011;7658;51.456;7.622;2022-07-29T02:03:20;3.88;;;2.53;;
15114;SDS011;7658;51.456;7.622;2022-07-29T02:05:47;4.43;;;2.42;;
15114;SDS011;7658;51.456;7.622;2022-07-29T02:08:14;6.40;;;2.63;;
15114;SDS011;7658;51.456;7.622;2022-07-29T02:10:43;5.70;;;2.47;;
15114;SDS011;7658;51.456;7.622;2022-07-29T02:13:12;3.63;;;2.35;;
15114;SDS011;7658;51.456;7.622;2022-07-29T02:15:39;4.43;;;2.50;;
15114;SDS011;7658;51.456;7.622;2022-07-29T02:18:08;7.15;;;2.40;;
15114;SDS011;7658;51.456;7.622;2022-07-29T02:20:43;2.88;;;2.30;;
15114;SDS011;7658;51.456;7.622;2022-07-29T02:23:11;8.10;;;2.28;;
15114;SDS011;7658;51.456;7.622;2022-07-29T02:25:40;8.75;;;2.53;;
15114;SDS011;7658;51.456;7.622;2022-07-29T02:28:07;4.35;;;2.20;;
15114;SDS011;7658;51.456;7.622;2022-07-29T02:30:37;4.85;;;2.53;;
15114;SDS011;7658;51.456;7.622;2022-07-29T02:33:06;6.25;;;2.30;;
15114;SDS011;7658;51.456;7.622;2022-07-29T02:35:34;3.90;;;2.40;;
15114;SDS011;7658;51.456;7.622;2022-07-29T02:38:01;6.57;;;2.50;;
15114;SDS011;7658;51.456;7.622;2022-07-29T02:40:46;4.00;;;2.47;;
15114;SDS011;7658;51.456;7.622;2022-07-29T02:43:13;5.90;;;2.50;;
15114;SDS011;7658;51.456;7.622;2022-07-29T02:45:39;2.45;;;2.25;;
15114;SDS011;7658;51.456;7.622;2022-07-29T02:48:09;4.90;;;2.40;;
15114;SDS011;7658;51.456;7.622;2022-07-29T02:50:39;6.43;;;2.80;;
15114;SDS011;7658;51.456;7.622;2022-07-29T02:53:14;4.43;;;2.50;;
15114;SDS011;7658;51.456;7.622;2022-07-29T02:55:45;5.20;;;2.75;;
15114;SDS011;7658;51.456;7.622;2022-07-29T02:58:30;5.47;;;3.78;;
15114;SDS011;7658;51.456;7.622;2022-07-29T03:01:01;7.43;;;2.92;;
15114;SDS011;7658;51.456;7.622;2022-07-29T03:03:37;5.97;;;2.95;;
15114;SDS011;7658;51.456;7.622;2022-07-29T03:06:04;6.93;;;2.80;;
15114;SDS011;7658;51.456;7.622;2022-07-29T03:08:32;12.82;;;3.15;;
15114;SDS011;7658;51.456;7.622;2022-07-29T03:11:01;6.72;;;2.63;;
15114;SDS011;7658;51.456;7.622;2022-07-29T03:13:27;5.05;;;3.13;;
15114;SDS011;7658;51.456;7.622;2022-07-29T03:15:55;5.85;;;2.80;;
15114;SDS011;7658;51.456;7.622;2022-07-29T03:18:22;3.90;;;2.80;;
15114;SDS011;7658;51.456;7.622;2022-07-29T03:20:49;7.50;;;2.92;;
15114;SDS011;7658;51.456;7.622;2022-07-29T03:23:21;5.95;;;2.92;;
15114;SDS011;7658;51.456;7.622;2022-07-29T03:25:51;3.78;;;2.40;;
15114;SDS011;7658;51.456;7.622;2022-07-29T03:28:18;7.68;;;3.50;;
15114;SDS011;7658;51.456;7.622;2022-07-29T03:30:44;5.47;;;2.90;;
15114;SDS011;7658;51.456;7.622;2022-07-29T03:33:10;6.07;;;2.80;;
15114;SDS011;7658;51.456;7.622;2022-07-29T03:35:36;3.30;;;2.90;;
15114;SDS011;7658;51.456;7.622;2022-07-29T03:38:02;9.43;;;2.90;;
15114;SDS011;7658;51.456;7.622;2022-07-29T03:40:33;3.85;;;2.95;;
15114;SDS011;7658;51.456;7.622;2022-07-29T03:43:05;10.35;;;3.35;;
15114;SDS011;7658;51.456;7.622;2022-07-29T03:45:34;7.50;;;2.88;;
15114;SDS011;7658;51.456;7.622;2022-07-29T03:48:02;7.07;;;2.80;;
15114;SDS011;7658;51.456;7.622;2022-07-29T03:50:33;6.10;;;3.03;;
15114;SDS011;7658;51.456;7.622;2022-07-29T03:53:00;4.90;;;2.60;;
15114;SDS011;7658;51.456;7.622;2022-07-29T03:55:28;6.43;;;2.92;;
15114;SDS011;7658;51.456;7.622;2022-07-29T03:57:56;5.88;;;2.80;;
15114;SDS011;7658;51.456;7.622;2022-07-29T04:00:24;3.13;;;2.63;;
15114;SDS011;7658;51.456;7.622;2022-07-29T04:02:50;5.00;;;3.28;;
15114;SDS011;7658;51.456;7.622;2022-07-29T04:05:16;6.75;;;3.53;;
15114;SDS011;7658;51.456;7.622;2022-07-29T04:07:43;6.72;;;2.75;;
15114;SDS011;7658;51.456;7.622;2022-07-29T04:10:10;5.55;;;3.53;;
15114;SDS011;7658;51.456;7.622;2022-07-29T04:12:36;6.90;;;3.50;;
15114;SDS011;7658;51.456;7.622;2022-07-29T04:15:05;7.13;;;3.47;;
15114;SDS011;7658;51.456;7.622;2022-07-29T04:17:31;5.93;;;3.22;;
15114;SDS011;7658;51.456;7.622;2022-07-29T04:19:57;4.80;;;3.10;;
15114;SDS011;7658;51.456;7.622;2022-07-29T04:22:23;7.05;;;3.22;;
15114;SDS011;7658;51.456;7.622;2022-07-29T04:24:48;8.05;;;3.58;;
15114;SDS011;7658;51.456;7.622;2022-07-29T04:27:14;4.70;;;3.28;;
15114;SDS011;7658;51.456;7.622;2022-07-29T04:29:40;9.57;;;3.03;;
15114;SDS011;7658;51.456;7.622;2022-07-29T04:32:05;6.90;;;3.08;;
15114;SDS011;7658;51.456;7.622;2022-07-29T04:34:31;4.40;;;3.20;;
15114;SDS011;7658;51.456;7.622;2022-07-29T04:36:57;6.60;;;3.22;;
15114;SDS011;7658;51.456;7.622;2022-07-29T04:39:23;5.35;;;3.20;;
15114;SDS011;7658;51.456;7.622;2022-07-29T04:41:49;5.10;;;3.03;;
15114;SDS011;7658;51.456;7.622;2022-07-29T04:44:15;5.50;;;3.00;;
15114;SDS011;7658;51.456;7.622;2022-07-29T04:46:41;8.98;;;3.67;;
15114;SDS011;7658;51.456;7.622;2022-07-29T04:49:07;7.22;;;3.50;;
15114;SDS011;7658;51.456;7.622;2022-07-29T04:51:33;7.38;;;3.30;;
15114;SDS011;7658;51.456;7.622;2022-07-29T04:53:59;6.82;;;3.10;;
15114;SDS011;7658;51.456;7.622;2022-07-29T04:56:25;10.50;;;4.47;;
15114;SDS011;7658;51.456;7.622;2022-07-29T04:58:51;4.72;;;3.00;;
15114;SDS011;7658;51.456;7.622;2022-07-29T05:01:16;6.65;;;3.13;;
15114;SDS011;7658;51.456;7.622;2022-07-29T05:03:42;6.07;;;3.13;;
15114;SDS011;7658;51.456;7.622;2022-07-29T05:06:08;9.27;;;3.55;;
15114;SDS011;7658;51.456;7.622;2022-07-29T05:08:34;9.35;;;3.40;;
15114;SDS011;7658;51.456;7.622;2022-07-29T05:11:00;7.68;;;3.00;;
15114;SDS011;7658;51.456;7.622;2022-07-29T05:13:26;9.57;;;4.65;;
15114;SDS011;7658;51.456;7.622;2022-07-29T05:15:51;7.82;;;3.28;;
15114;SDS011;7658;51.456;7.622;2022-07-29T05:18:17;5.45;;;2.90;;
15114;SDS011;7658;51.456;7.622;2022-07-29T05:20:43;5.40;;;2.90;;
15114;SDS011;7658;51.456;7.622;2022-07-29T05:23:09;10.65;;;2.85;;
15114;SDS011;7658;51.456;7.622;2022-07-29T05:25:37;7.82;;;3.10;;
15114;SDS011;7658;51.456;7.622;2022-07-29T05:28:03;10.82;;;3.22;;
15114;SDS011;7658;51.456;7.622;2022-07-29T05:30:29;7.50;;;3.17;;
15114;SDS011;7658;51.456;7.622;2022-07-29T05:32:55;5.35;;;2.70;;
15114;SDS011;7658;51.456;7.622;2022-07-29T05:35:20;7.95;;;2.67;;
15114;SDS011;7658;51.456;7.622;2022-07-29T05:37:46;8.10;;;3.10;;
15114;SDS011;7658;51.456;7.622;2022-07-29T05:40:12;6.03;;;2.70;;
15114;SDS011;7658;51.456;7.622;2022-07-29T05:42:38;10.13;;;2.90;;
15114;SDS011;7658;51.456;7.622;2022-07-29T05:45:04;13.35;;;3.75;;
15114;SDS011;7658;51.456;7.622;2022-07-29T05:47:30;8.98;;;3.00;;
15114;SDS011;7658;51.456;7.622;2022-07-29T05:49:56;6.32;;;2.97;;
15114;SDS011;7658;51.456;7.622;2022-07-29T05:52:22;6.47;;;2.85;;
15114;SDS011;7658;51.456;7.622;2022-07-29T05:54:48;9.65;;;3.00;;
15114;SDS011;7658;51.456;7.622;2022-07-29T05:57:21;6.15;;;2.90;;
15114;SDS011;7658;51.456;7.622;2022-07-29T05:59:49;4.65;;;2.50;;
15114;SDS011;7658;51.456;7.622;2022-07-29T06:02:15;7.68;;;2.90;;
15114;SDS011;7658;51.456;7.622;2022-07-29T06:04:42;7.10;;;2.83;;
15114;SDS011;7658;51.456;7.622;2022-07-29T06:07:08;5.60;;;2.67;;
15114;SDS011;7658;51.456;7.622;2022-07-29T06:09:33;7.18;;;2.92;;
15114;SDS011;7658;51.456;7.622;2022-07-29T06:11:59;6.40;;;2.58;;
15114;SDS011;7658;51.456;7.622;2022-07-29T06:14:26;8.93;;;2.60;;
15114;SDS011;7658;51.456;7.622;2022-07-29T06:16:53;5.72;;;2.80;;
15114;SDS011;7658;51.456;7.622;2022-07-29T06:19:19;10.32;;;2.72;;
15114;SDS011;7658;51.456;7.622;2022-07-29T06:21:45;4.55;;;2.55;;
15114;SDS011;7658;51.456;7.622;2022-07-29T06:24:12;6.35;;;2.80;;
15114;SDS011;7658;51.456;7.622;2022-07-29T06:26:39;10.40;;;3.08;;
15114;SDS011;7658;51.456;7.622;2022-07-29T06:29:05;5.55;;;2.60;;
15114;SDS011;7658;51.456;7.622;2022-07-29T06:31:31;8.73;;;3.05;;
15114;SDS011;7658;51.456;7.622;2022-07-29T06:33:57;8.60;;;2.92;;
15114;SDS011;7658;51.456;7.622;2022-07-29T06:36:23;5.70;;;2.80;;
15114;SDS011;7658;51.456;7.622;2022-07-29T06:38:49;7.95;;;2.90;;
15114;SDS011;7658;51.456;7.622;2022-07-29T06:41:15;6.80;;;2.92;;
15114;SDS011;7658;51.456;7.622;2022-07-29T06:43:42;3.70;;;2.33;;
15114;SDS011;7658;51.456;7.622;2022-07-29T06:46:12;3.85;;;2.75;;
15114;SDS011;7658;51.456;7.622;2022-07-29T06:48:40;4.63;;;2.53;;
15114;SDS011;7658;51.456;7.622;2022-07-29T06:51:10;6.45;;;2.63;;
15114;SDS011;7658;51.456;7.622;2022-07-29T06:53:39;10.32;;;3.17;;
15114;SDS011;7658;51.456;7.622;2022-07-29T06:56:05;7.05;;;2.50;;
15114;SDS011;7658;51.456;7.622;2022-07-29T06:58:33;4.35;;;2.80;;
15114;SDS011;7658;51.456;7.622;2022-07-29T07:01:01;5.22;;;2.58;;
15114;SDS011;7658;51.456;7.622;2022-07-29T07:03:28;4.35;;;2.60;;
15114;SDS011;7658;51.456;7.622;2022-07-29T07:05:54;7.43;;;2.67;;
15114;SDS011;7658;51.456;7.622;2022-07-29T07:08:20;6.35;;;2.42;;
15114;SDS011;7658;51.456;7.622;2022-07-29T07:10:47;5.22;;;2.50;;
15114;SDS011;7658;51.456;7.622;2022-07-29T07:13:13;10.35;;;2.75;;
15114;SDS011;7658;51.456;7.622;2022-07-29T07:15:39;7.30;;;2.35;;
15114;SDS011;7658;51.456;7.622;2022-07-29T07:18:06;5.55;;;2.67;;
15114;SDS011;7658;51.456;7.622;2022-07-29T07:20:32;4.28;;;2.47;;
15114;SDS011;7658;51.456;7.622;2022-07-29T07:22:59;4.38;;;2.38;;
15114;SDS011;7658;51.456;7.622;2022-07-29T07:25:24;6.07;;;2.88;;
15114;SDS011;7658;51.456;7.622;2022-07-29T07:27:50;5.22;;;2.38;;
15114;SDS011;7658;51.456;7.622;2022-07-29T07:30:16;7.45;;;2.50;;
15114;SDS011;7658;51.456;7.622;2022-07-29T07:32:42;5.20;;;2.30;;
15114;SDS011;7658;51.456;7.622;2022-07-29T07:35:08;5.00;;;2.60;;
15114;SDS011;7658;51.456;7.622;2022-07-29T07:37:35;3.65;;;2.25;;
15114;SDS011;7658;51.456;7.622;2022-07-29T07:40:02;5.63;;;3.00;;
15114;SDS011;7658;51.456;7.622;2022-07-29T07:42:29;9.52;;;2.72;;
15114;SDS011;7658;51.456;7.622;2022-07-29T07:44:55;9.07;;;2.90;;
15114;SDS011;7658;51.456;7.622;2022-07-29T07:47:21;5.95;;;2.65;;
15114;SDS011;7658;51.456;7.622;2022-07-29T07:49:49;3.53;;;2.47;;
15114;SDS011;7658;51.456;7.622;2022-07-29T07:52:16;7.70;;;2.78;;
15114;SDS011;7658;51.456;7.622;2022-07-29T07:54:43;6.57;;;2.85;;
15114;SDS011;7658;51.456;7.622;2022-07-29T07:57:10;3.58;;;2.47;;
15114;SDS011;7658;51.456;7.622;2022-07-29T07:59:40;4.53;;;2.83;;
15114;SDS011;7658;51.456;7.622;2022-07-29T08:02:06;8.93;;;2.80;;
15114;SDS011;7658;51.456;7.622;2022-07-29T08:04:33;5.55;;;2.78;;
15114;SDS011;7658;51.456;7.622;2022-07-29T08:06:59;5.07;;;2.40;;
15114;SDS011;7658;51.456;7.622;2022-07-29T08:09:26;4.18;;;2.20;;
15114;SDS011;7658;51.456;7.622;2022-07-29T08:11:53;5.35;;;2.03;;
15114;SDS011;7658;51.456;7.622;2022-07-29T08:14:19;4.80;;;2.25;;
15114;SDS011;7658;51.456;7.622;2022-07-29T08:16:45;6.38;;;2.88;;
15114;SDS011;7658;51.456;7.622;2022-07-29T08:19:11;6.38;;;3.00;;
15114;SDS011;7658;51.456;7.622;2022-07-29T08:21:37;5.40;;;2.50;;
15114;SDS011;7658;51.456;7.622;2022-07-29T08:24:03;6.60;;;3.15;;
15114;SDS011;7658;51.456;7.622;2022-07-29T08:26:48;7.60;;;2.80;;
15114;SDS011;7658;51.456;7.622;2022-07-29T08:29:14;4.90;;;2.33;;
15114;SDS011;7658;51.456;7.622;2022-07-29T08:31:41;7.63;;;3.55;;
15114;SDS011;7658;51.456;7.622;2022-07-29T08:34:07;6.57;;;2.70;;
15114;SDS011;7658;51.456;7.622;2022-07-29T08:36:33;8.90;;;3.00;;
15114;SDS011;7658;51.456;7.622;2022-07-29T08:38:59;9.98;;;2.65;;
15114;SDS011;7658;51.456;7.622;2022-07-29T08:41:26;7.65;;;2.72;;
15114;SDS011;7658;51.456;7.622;2022-07-29T08:43:52;5.40;;;2.72;;
15114;SDS011;7658;51.456;7.622;2022-07-29T08:46:18;5.68;;;2.83;;
15114;SDS011;7658;51.456;7.622;2022-07-29T08:48:46;7.20;;;3.80;;
15114;SDS011;7658;51.456;7.622;2022-07-29T08:51:16;6.28;;;3.30;;
15114;SDS011;7658;51.456;7.622;2022-07-29T08:53:44;8.80;;;3.58;;
15114;SDS011;7658;51.456;7.622;2022-07-29T08:56:12;6.30;;;2.90;;
15114;SDS011;7658;51.456;7.622;2022-07-29T08:58:39;10.57;;;2.90;;
15114;SDS011;7658;51.456;7.622;2022-07-29T09:01:06;4.63;;;2.60;;
15114;SDS011;7658;51.456;7.622;2022-07-29T09:03:34;4.55;;;2.63;;
15114;SDS011;7658;51.456;7.622;2022-07-29T09:06:02;4.32;;;2.30;;
15114;SDS011;7658;51.456;7.622;2022-07-29T09:08:30;10.93;;;2.85;;
15114;SDS011;7658;51.456;7.622;2022-07-29T09:10:57;6.97;;;2.47;;
15114;SDS011;7658;51.456;7.622;2022-07-29T09:13:24;5.78;;;3.08;;
15114;SDS011;7658;51.456;7.622;2022-07-29T09:15:50;11.07;;;3.65;;
15114;SDS011;7658;51.456;7.622;2022-07-29T09:21:12;16.02;;;3.30;;
15114;SDS011;7658;51.456;7.622;2022-07-29T09:26:43;7.53;;;3.03;;
15114;SDS011;7658;51.456;7.622;2022-07-29T09:29:11;5.50;;;2.60;;
15114;SDS011;7658;51.456;7.622;2022-07-29T09:31:39;12.48;;;3.35;;
15114;SDS011;7658;51.456;7.622;2022-07-29T09:34:06;6.55;;;3.03;;
15114;SDS011;7658;51.456;7.622;2022-07-29T09:36:43;6.93;;;2.58;;
15114;SDS011;7658;51.456;7.622;2022-07-29T09:39:11;7.70;;;2.85;;
15114;SDS011;7658;51.456;7.622;2022-07-29T09:41:50;4.35;;;2.47;;
15114;SDS011;7658;51.456;7.622;2022-07-29T09:44:23;9.90;;;3.00;;
15114;SDS011;7658;51.456;7.622;2022-07-29T09:46:59;4.78;;;2.65;;
15114;SDS011;7658;51.456;7.622;2022-07-29T09:49:49;9.85;;;2.60;;
15114;SDS011;7658;51.456;7.622;2022-07-29T09:52:23;6.53;;;2.72;;
15114;SDS011;7658;51.456;7.622;2022-07-29T09:54:49;5.95;;;2.78;;
15114;SDS011;7658;51.456;7.622;2022-07-29T09:57:23;5.00;;;2.50;;
15114;SDS011;7658;51.456;7.622;2022-07-29T10:02:28;6.93;;;1.98;;
15114;SDS011;7658;51.456;7.622;2022-07-29T10:04:55;5.97;;;2.50;;
15114;SDS011;7658;51.456;7.622;2022-07-29T10:07:21;4.78;;;2.70;;
15114;SDS011;7658;51.456;7.622;2022-07-29T10:09:54;8.23;;;2.78;;
15114;SDS011;7658;51.456;7.622;2022-07-29T10:12:21;4.78;;;2.40;;
15114;SDS011;7658;51.456;7.622;2022-07-29T10:14:47;5.57;;;2.30;;
15114;SDS011;7658;51.456;7.622;2022-07-29T10:17:14;7.68;;;2.55;;
15114;SDS011;7658;51.456;7.622;2022-07-29T10:19:41;4.85;;;2.60;;
15114;SDS011;7658;51.456;7.622;2022-07-29T10:22:08;5.63;;;2.40;;
15114;SDS011;7658;51.456;7.622;2022-07-29T10:24:35;3.80;;;2.20;;
15114;SDS011;7658;51.456;7.622;2022-07-29T10:27:05;6.00;;;2.38;;
15114;SDS011;7658;51.456;7.622;2022-07-29T10:29:38;3.20;;;2.17;;
15114;SDS011;7658;51.456;7.622;2022-07-29T10:40:57;7.50;;;2.80;;
15114;SDS011;7658;51.456;7.622;2022-07-29T10:43:54;8.98;;;2.83;;
15114;SDS011;7658;51.456;7.622;2022-07-29T10:46:47;6.85;;;3.20;;
15114;SDS011;7658;51.456;7.622;2022-07-29T10:49:14;5.18;;;2.83;;
15114;SDS011;7658;51.456;7.622;2022-07-29T10:59:44;9.35;;;5.05;;
15114;SDS011;7658;51.456;7.622;2022-07-29T11:07:38;7.30;;;4.43;;
15114;SDS011;7658;51.456;7.622;2022-07-29T11:15:10;5.97;;;4.28;;
15114;SDS011;7658;51.456;7.622;2022-07-29T11:20:30;8.07;;;4.50;;
15114;SDS011;7658;51.456;7.622;2022-07-29T11:22:57;9.02;;;4.53;;
15114;SDS011;7658;51.456;7.622;2022-07-29T11:25:24;8.52;;;4.38;;
15114;SDS011;7658;51.456;7.622;2022-07-29T11:27:54;5.45;;;4.28;;
15114;SDS011;7658;51.456;7.622;2022-07-29T11:33:30;7.97;;;3.58;;
15114;SDS011;7658;51.456;7.622;2022-07-29T11:36:09;11.30;;;4.28;;
15114;SDS011;7658;51.456;7.622;2022-07-29T11:38:39;8.80;;;4.45;;
15114;SDS011;7658;51.456;7.622;2022-07-29T11:43:50;7.35;;;3.47;;
15114;SDS011;7658;51.456;7.622;2022-07-29T11:49:25;10.80;;;4.40;;
15114;SDS011;7658;51.456;7.622;2022-07-29T11:51:52;9.43;;;3.42;;
15114;SDS011;7658;51.456;7.622;2022-07-29T11:54:24;11.77;;;4.47;;
15114;SDS011;7658;51.456;7.622;2022-07-29T11:56:52;11.55;;;4.03;;
15114;SDS011;7658;51.456;7.622;2022-07-29T11:59:18;8.25;;;3.33;;
15114;SDS011;7658;51.456;7.622;2022-07-29T12:04:20;6.80;;;3.35;;
15114;SDS011;7658;51.456;7.622;2022-07-29T12:06:51;7.60;;;3.63;;
15114;SDS011;7658;51.456;7.622;2022-07-29T12:09:20;9.15;;;3.58;;
15114;SDS011;7658;51.456;7.622;2022-07-29T12:11:46;8.65;;;3.20;;
15114;SDS011;7658;51.456;7.622;2022-07-29T12:16:54;10.65;;;4.15;;
15114;SDS011;7658;51.456;7.622;2022-07-29T12:19:20;8.63;;;3.65;;
15114;SDS011;7658;51.456;7.622;2022-07-29T12:21:47;5.95;;;3.67;;
15114;SDS011;7658;51.456;7.622;2022-07-29T12:24:14;8.80;;;3.78;;
15114;SDS011;7658;51.456;7.622;2022-07-29T12:26:50;6.75;;;3.17;;
15114;SDS011;7658;51.456;7.622;2022-07-29T12:29:20;8.07;;;3.35;;
15114;SDS011;7658;51.456;7.622;2022-07-29T12:31:50;8.57;;;3.42;;
15114;SDS011;7658;51.456;7.622;2022-07-29T12:34:19;5.93;;;3.97;;
15114;SDS011;7658;51.456;7.622;2022-07-29T12:36:47;6.32;;;3.83;;
15114;SDS011;7658;51.456;7.622;2022-07-29T12:39:15;11.68;;;4.28;;
15114;SDS011;7658;51.456;7.622;2022-07-29T12:41:42;12.68;;;3.92;;
15114;SDS011;7658;51.456;7.622;2022-07-29T12:44:09;5.53;;;3.08;;
15114;SDS011;7658;51.456;7.622;2022-07-29T12:46:35;8.15;;;4.45;;
15114;SDS011;7658;51.456;7.622;2022-07-29T12:49:01;5.90;;;3.05;;
15114;SDS011;7658;51.456;7.622;2022-07-29T12:51:32;8.63;;;4.05;;
15114;SDS011;7658;51.456;7.622;2022-07-29T12:56:39;6.13;;;3.35;;
15114;SDS011;7658;51.456;7.622;2022-07-29T12:59:13;7.90;;;3.63;;
15114;SDS011;7658;51.456;7.622;2022-07-29T13:01:44;12.10;;;4.40;;
15114;SDS011;7658;51.456;7.622;2022-07-29T13:07:23;5.90;;;3.30;;
15114;SDS011;7658;51.456;7.622;2022-07-29T13:09:51;7.60;;;3.53;;
15114;SDS011;7658;51.456;7.622;2022-07-29T13:12:16;8.48;;;4.53;;
15114;SDS011;7658;51.456;7.622;2022-07-29T13:14:46;8.65;;;4.70;;
15114;SDS011;7658;51.456;7.622;2022-07-29T13:17:13;7.10;;;3.60;;
15114;SDS011;7658;51.456;7.622;2022-07-29T13:22:15;13.23;;;4.07;;
15114;SDS011;7658;51.456;7.622;2022-07-29T13:27:13;6.68;;;3.70;;
15114;SDS011;7658;51.456;7.622;2022-07-29T13:29:39;7.20;;;4.18;;
15114;SDS011;7658;51.456;7.622;2022-07-29T13:32:05;7.15;;;4.20;;
15114;SDS011;7658;51.456;7.622;2022-07-29T13:34:31;8.27;;;4.00;;
15114;SDS011;7658;51.456;7.622;2022-07-29T13:36:56;6.88;;;3.72;;
15114;SDS011;7658;51.456;7.622;2022-07-29T13:39:22;7.50;;;3.88;;
15114;SDS011;7658;51.456;7.622;2022-07-29T13:41:48;9.23;;;4.68;;
15114;SDS011;7658;51.456;7.622;2022-07-29T13:44:14;9.27;;;4.38;;
15114;SDS011;7658;51.456;7.622;2022-07-29T13:46:40;8.93;;;4.32;;
15114;SDS011;7658;51.456;7.622;2022-07-29T13:49:07;7.32;;;3.85;;
15114;SDS011;7658;51.456;7.622;2022-07-29T13:51:33;7.47;;;4.00;;
15114;SDS011;7658;51.456;7.622;2022-07-29T13:53:59;5.38;;;3.40;;
15114;SDS011;7658;51.456;7.622;2022-07-29T13:56:25;7.78;;;4.40;;
15114;SDS011;7658;51.456;7.622;2022-07-29T13:58:51;7.63;;;4.45;;
15114;SDS011;7658;51.456;7.622;2022-07-29T14:01:17;9.52;;;4.05;;
15114;SDS011;7658;51.456;7.622;2022-07-29T14:03:42;9.48;;;3.67;;
15114;SDS011;7658;51.456;7.622;2022-07-29T14:06:08;6.32;;;3.70;;
15114;SDS011;7658;51.456;7.622;2022-07-29T14:08:34;10.80;;;3.88;;
15114;SDS011;7658;51.456;7.622;2022-07-29T14:11:00;8.20;;;4.63;;
15114;SDS011;7658;51.456;7.622;2022-07-29T14:13:25;8.02;;;5.00;;
15114;SDS011;7658;51.456;7.622;2022-07-29T14:15:51;8.70;;;4.72;;
15114;SDS011;7658;51.456;7.622;2022-07-29T14:18:17;14.05;;;5.90;;
15114;SDS011;7658;51.456;7.622;2022-07-29T14:20:43;11.30;;;5.78;;
15114;SDS011;7658;51.456;7.622;2022-07-29T14:23:09;10.00;;;5.82;;
15114;SDS011;7658;51.456;7.622;2022-07-29T14:25:34;9.38;;;5.90;;
15114;SDS011;7658;51.456;7.622;2022-07-29T14:28:00;10.27;;;4.65;;
15114;SDS011;7658;51.456;7.622;2022-07-29T14:30:26;8.90;;;5.03;;
15114;SDS011;7658;51.456;7.622;2022-07-29T14:32:52;7.82;;;5.07;;
15114;SDS011;7658;51.456;7.622;2022-07-29T14:35:18;6.68;;;4.60;;
15114;SDS011;7658;51.456;7.622;2022-07-29T14:37:44;10.80;;;4.90;;
15114;SDS011;7658;51.456;7.622;2022-07-29T14:40:10;7.80;;;4.78;;
15114;SDS011;7658;51.456;7.622;2022-07-29T14:42:36;6.55;;;4.15;;
15114;SDS011;7658;51.456;7.622;2022-07-29T14:45:04;8.88;;;5.82;;
15114;SDS011;7658;51.456;7.622;2022-07-29T14:47:30;9.30;;;5.90;;
15114;SDS011;7658;51.456;7.622;2022-07-29T14:49:57;10.43;;;5.40;;
15114;SDS011;7658;51.456;7.622;2022-07-29T14:52:22;14.65;;;8.15;;
15114;SDS011;7658;51.456;7.622;2022-07-29T14:54:48;11.35;;;6.95;;
15114;SDS011;7658;51.456;7.622;2022-07-29T14:57:14;7.55;;;4.03;;
15114;SDS011;7658;51.456;7.622;2022-07-29T14:59:40;8.25;;;5.10;;
15114;SDS011;7658;51.456;7.622;2022-07-29T15:02:05;10.18;;;5.82;;
15114;SDS011;7658;51.456;7.622;2022-07-29T15:04:31;9.40;;;5.57;;
15114;SDS011;7658;51.456;7.622;2022-07-29T15:06:57;11.43;;;6.20;;
15114;SDS011;7658;51.456;7.622;2022-07-29T15:09:23;16.67;;;5.30;;
15114;SDS011;7658;51.456;7.622;2022-07-29T15:11:49;8.23;;;3.97;;
15114;SDS011;7658;51.456;7.622;2022-07-29T15:14:14;9.30;;;3.58;;
15114;SDS011;7658;51.456;7.622;2022-07-29T15:16:40;8.18;;;3.45;;
15114;SDS011;7658;51.456;7.622;2022-07-29T15:19:07;12.38;;;4.78;;
15114;SDS011;7658;51.456;7.622;2022-07-29T15:21:36;7.60;;;3.22;;
15114;SDS011;7658;51.456;7.622;2022-07-29T15:24:02;5.47;;;3.78;;
15114;SDS011;7658;51.456;7.622;2022-07-29T15:26:28;7.72;;;3.47;;
15114;SDS011;7658;51.456;7.622;2022-07-29T15:28:54;8.43;;;4.05;;
15114;SDS011;7658;51.456;7.622;2022-07-29T15:31:21;6.50;;;3.33;;
15114;SDS011;7658;51.456;7.622;2022-07-29T15:33:47;7.90;;;3.60;;
15114;SDS011;7658;51.456;7.622;2022-07-29T15:36:13;7.40;;;4.43;;
15114;SDS011;7658;51.456;7.622;2022-07-29T15:38:41;8.18;;;4.13;;
15114;SDS011;7658;51.456;7.622;2022-07-29T15:41:09;7.78;;;3.55;;
15114;SDS011;7658;51.456;7.622;2022-07-29T15:43:38;7.57;;;2.92;;
15114;SDS011;7658;51.456;7.622;2022-07-29T15:46:13;5.50;;;2.80;;
15114;SDS011;7658;51.456;7.622;2022-07-29T15:48:59;6.78;;;3.00;;
15114;SDS011;7658;51.456;7.622;2022-07-29T15:51:25;9.00;;;3.10;;
15114;SDS011;7658;51.456;7.622;2022-07-29T15:53:52;5.53;;;2.67;;
15114;SDS011;7658;51.456;7.622;2022-07-29T15:56:17;5.57;;;2.50;;
15114;SDS011;7658;51.456;7.622;2022-07-29T15:58:43;7.13;;;2.63;;
15114;SDS011;7658;51.456;7.622;2022-07-29T16:01:09;5.97;;;3.13;;
15114;SDS011;7658;51.456;7.622;2022-07-29T16:03:35;7.75;;;2.97;;
15114;SDS011;7658;51.456;7.622;2022-07-29T16:06:01;9.73;;;3.30;;
15114;SDS011;7658;51.456;7.622;2022-07-29T16:08:27;8.55;;;3.38;;
15114;SDS011;7658;51.456;7.622;2022-07-29T16:10:53;6.55;;;3.17;;
15114;SDS011;7658;51.456;7.622;2022-07-29T16:13:18;4.78;;;2.50;;
15114;SDS011;7658;51.456;7.622;2022-07-29T16:15:44;7.20;;;2.40;;
15114;SDS011;7658;51.456;7.622;2022-07-29T16:18:10;3.97;;;2.40;;